createdAt,value
2023-03-21T00:00:35.268Z,13.57
2023-03-21T00:01:35.275Z,13.56
2023-03-21T00:02:35.373Z,13.56
2023-03-21T00:03:35.311Z,13.53
2023-03-21T00:04:48.435Z,13.47
2023-03-21T00:05:36.670Z,13.54
2023-03-21T00:06:35.198Z,13.42
2023-03-21T00:07:35.214Z,13.52
2023-03-21T00:08:35.174Z,13.42
2023-03-21T00:09:35.189Z,13.47
2023-03-21T00:11:36.150Z,13.47
2023-03-21T00:12:35.136Z,13.53
2023-03-21T00:13:35.113Z,13.54
2023-03-21T00:14:36.142Z,13.50
2023-03-21T00:15:46.308Z,13.49
2023-03-21T00:16:36.134Z,13.41
2023-03-21T00:17:35.094Z,13.39
2023-03-21T00:18:35.105Z,13.35
2023-03-21T00:19:35.114Z,13.35
2023-03-21T00:20:35.038Z,13.38
2023-03-21T00:21:46.540Z,13.39
2023-03-21T00:22:36.012Z,13.41
2023-03-21T00:23:35.004Z,13.49
2023-03-21T00:24:35.066Z,13.54
2023-03-21T00:25:35.035Z,13.52
2023-03-21T00:26:34.977Z,13.52
2023-03-21T00:27:53.323Z,13.39
2023-03-21T00:28:36.916Z,13.42
2023-03-21T00:29:34.985Z,13.42
2023-03-21T00:30:34.951Z,13.42
2023-03-21T00:31:34.943Z,13.42
2023-03-21T00:32:39.790Z,13.33
2023-03-21T00:33:35.923Z,13.28
2023-03-21T00:34:43.429Z,13.25
2023-03-21T00:35:57.911Z,13.31
2023-03-21T00:36:35.936Z,13.37
2023-03-21T00:37:35.899Z,13.44
2023-03-21T00:38:34.857Z,13.42
2023-03-21T00:39:35.921Z,13.44
2023-03-21T00:40:40.492Z,13.44
2023-03-21T00:41:42.529Z,13.33
2023-03-21T00:42:35.852Z,13.33
2023-03-21T00:43:34.824Z,13.35
2023-03-21T00:44:34.800Z,13.37
2023-03-21T00:45:34.774Z,13.23
2023-03-21T00:46:44.103Z,13.30
2023-03-21T00:47:35.878Z,13.37
2023-03-21T00:48:34.851Z,13.37
2023-03-21T00:49:34.732Z,13.30
2023-03-21T00:50:34.781Z,13.27
2023-03-21T00:51:34.731Z,13.19
2023-03-21T00:52:40.864Z,13.13
2023-03-21T00:53:35.721Z,13.12
2023-03-21T00:54:35.672Z,13.04
2023-03-21T00:55:35.022Z,13.11
2023-03-21T00:56:34.663Z,12.87
2023-03-21T00:57:39.377Z,12.80
2023-03-21T00:58:35.650Z,12.85
2023-03-21T00:59:34.620Z,12.91
2023-03-21T01:00:34.638Z,12.76
2023-03-21T01:01:34.708Z,12.54
2023-03-21T01:02:35.406Z,12.54
2023-03-21T01:03:34.567Z,12.60
2023-03-21T01:04:34.599Z,12.61
2023-03-21T01:05:34.724Z,12.45
2023-03-21T01:06:35.529Z,12.50
2023-03-21T01:07:34.537Z,12.13
2023-03-21T01:08:48.595Z,12.09
2023-03-21T01:09:35.517Z,11.80
2023-03-21T01:10:35.490Z,11.60
2023-03-21T01:11:35.533Z,11.66
2023-03-21T01:12:34.467Z,11.86
2023-03-21T01:13:36.343Z,11.94
2023-03-21T01:14:34.483Z,12.06
2023-03-21T01:15:35.804Z,12.07
2023-03-21T01:16:34.615Z,11.83
2023-03-21T01:17:34.427Z,11.80
2023-03-21T01:18:34.382Z,11.80
2023-03-21T01:19:50.334Z,11.88
2023-03-21T01:20:35.408Z,11.83
2023-03-21T01:21:34.403Z,11.86
2023-03-21T01:22:34.343Z,11.80
2023-03-21T01:23:34.372Z,11.86
2023-03-21T01:24:37.653Z,11.70
2023-03-21T01:25:34.328Z,11.69
2023-03-21T01:26:34.354Z,11.95
2023-03-21T01:27:35.357Z,11.99
2023-03-21T01:28:34.273Z,11.97
2023-03-21T01:29:35.282Z,11.73
2023-03-21T01:30:41.635Z,11.84
2023-03-21T01:31:35.328Z,11.86
2023-03-21T01:32:34.226Z,11.80
2023-03-21T01:33:34.259Z,11.83
2023-03-21T01:34:34.221Z,11.90
2023-03-21T01:35:45.062Z,11.90
2023-03-21T01:36:35.245Z,11.72
2023-03-21T01:37:35.194Z,11.77
2023-03-21T01:38:35.193Z,11.90
2023-03-21T01:39:34.167Z,11.90
2023-03-21T01:40:34.175Z,11.97
2023-03-21T01:41:42.614Z,11.99
2023-03-21T01:42:35.151Z,11.97
2023-03-21T01:43:34.140Z,11.95
2023-03-21T01:44:34.100Z,12.02
2023-03-21T01:45:41.993Z,12.31
2023-03-21T01:46:45.329Z,12.12
2023-03-21T01:47:35.082Z,12.12
2023-03-21T01:48:34.111Z,12.13
2023-03-21T01:49:34.076Z,12.13
2023-03-21T01:50:34.044Z,12.21
2023-03-21T01:51:34.032Z,12.22
2023-03-21T01:52:38.230Z,12.21
2023-03-21T01:53:34.004Z,12.15
2023-03-21T01:54:34.001Z,12.24
2023-03-21T01:55:35.174Z,12.22
2023-03-21T01:56:33.962Z,12.25
2023-03-21T01:57:42.454Z,12.32
2023-03-21T01:58:35.047Z,12.27
2023-03-21T01:59:33.946Z,12.22
2023-03-21T02:00:34.994Z,12.20
2023-03-21T02:01:33.941Z,12.18
2023-03-21T02:02:33.910Z,12.21
2023-03-21T02:03:36.318Z,12.17
2023-03-21T02:04:33.925Z,12.21
2023-03-21T02:05:33.903Z,12.27
2023-03-21T02:06:34.866Z,12.31
2023-03-21T02:07:33.892Z,12.24
2023-03-21T02:08:39.622Z,12.27
2023-03-21T02:09:35.033Z,12.32
2023-03-21T02:10:33.838Z,12.27
2023-03-21T02:11:33.830Z,12.35
2023-03-21T02:12:33.863Z,12.32
2023-03-21T02:13:33.820Z,12.32
2023-03-21T02:14:33.814Z,12.40
2023-03-21T02:15:33.929Z,12.42
2023-03-21T02:16:34.827Z,12.46
2023-03-21T02:17:33.760Z,12.39
2023-03-21T02:18:33.802Z,12.37
2023-03-21T02:19:39.335Z,12.40
2023-03-21T02:20:34.742Z,12.39
2023-03-21T02:21:34.713Z,12.36
2023-03-21T02:22:33.683Z,12.43
2023-03-21T02:23:33.715Z,12.36
2023-03-21T02:24:33.720Z,12.32
2023-03-21T02:25:33.703Z,12.37
2023-03-21T02:26:41.977Z,12.36
2023-03-21T02:27:34.654Z,12.36
2023-03-21T02:28:33.680Z,12.39
2023-03-21T02:29:34.613Z,12.35
2023-03-21T02:30:45.535Z,12.39
2023-03-21T02:31:34.652Z,12.37
2023-03-21T02:32:37.887Z,12.37
2023-03-21T02:33:33.591Z,12.42
2023-03-21T02:34:33.610Z,12.46
2023-03-21T02:35:37.108Z,12.43
2023-03-21T02:36:34.566Z,12.45
2023-03-21T02:37:38.367Z,12.49
2023-03-21T02:38:33.528Z,12.46
2023-03-21T02:39:34.554Z,12.53
2023-03-21T02:40:33.518Z,12.49
2023-03-21T02:41:40.024Z,12.49
2023-03-21T02:42:34.493Z,12.50
2023-03-21T02:43:33.535Z,12.49
2023-03-21T02:44:33.505Z,12.49
2023-03-21T02:45:33.519Z,12.49
2023-03-21T02:46:42.166Z,12.47
2023-03-21T02:47:34.523Z,12.49
2023-03-21T02:48:44.771Z,12.43
2023-03-21T02:49:34.420Z,12.49
2023-03-21T02:50:33.444Z,12.37
2023-03-21T02:51:33.410Z,12.35
2023-03-21T02:52:39.258Z,12.39
2023-03-21T02:53:34.366Z,12.42
2023-03-21T02:54:47.225Z,12.49
2023-03-21T02:55:34.357Z,12.37
2023-03-21T02:56:33.360Z,12.43
2023-03-21T02:57:42.524Z,12.47
2023-03-21T02:58:34.323Z,12.43
2023-03-21T02:59:35.774Z,12.42
2023-03-21T03:00:33.285Z,12.45
2023-03-21T03:01:34.400Z,12.46
2023-03-21T03:02:33.301Z,12.47
2023-03-21T03:03:34.945Z,12.43
2023-03-21T03:04:33.331Z,12.42
2023-03-21T03:05:34.240Z,12.43
2023-03-21T03:06:33.193Z,12.53
2023-03-21T03:07:33.282Z,12.42
2023-03-21T03:08:43.131Z,12.55
2023-03-21T03:09:34.241Z,12.49
2023-03-21T03:10:33.180Z,12.61
2023-03-21T03:11:33.210Z,12.54
2023-03-21T03:12:34.125Z,12.61
2023-03-21T03:13:33.141Z,12.43
2023-03-21T03:14:47.097Z,12.39
2023-03-21T03:15:34.951Z,12.58
2023-03-21T03:16:33.192Z,12.54
2023-03-21T03:17:33.124Z,12.47
2023-03-21T03:18:33.076Z,12.43
2023-03-21T03:19:41.669Z,12.40
2023-03-21T03:20:34.188Z,12.45
2023-03-21T03:21:33.094Z,12.50
2023-03-21T03:22:34.026Z,12.53
2023-03-21T03:23:33.008Z,12.47
2023-03-21T03:24:33.882Z,12.61
2023-03-21T03:25:42.518Z,12.54
2023-03-21T03:26:34.042Z,12.50
2023-03-21T03:27:33.961Z,12.60
2023-03-21T03:28:33.995Z,12.57
2023-03-21T03:29:32.993Z,12.60
2023-03-21T03:30:42.247Z,12.58
2023-03-21T03:31:34.016Z,12.62
2023-03-21T03:32:32.920Z,12.61
2023-03-21T03:33:33.941Z,12.62
2023-03-21T03:34:32.973Z,12.64
2023-03-21T03:35:32.881Z,12.61
2023-03-21T03:36:33.567Z,12.55
2023-03-21T03:37:33.899Z,12.55
2023-03-21T03:38:32.887Z,12.54
2023-03-21T03:39:32.850Z,12.54
2023-03-21T03:40:33.973Z,12.54
2023-03-21T03:41:56.246Z,12.64
2023-03-21T03:42:33.816Z,12.57
2023-03-21T03:43:32.870Z,12.65
2023-03-21T03:44:32.907Z,12.62
2023-03-21T03:45:32.784Z,12.60
2023-03-21T03:46:33.860Z,12.61
2023-03-21T03:47:37.845Z,12.58
2023-03-21T03:48:33.804Z,12.62
2023-03-21T03:49:33.752Z,12.50
2023-03-21T03:50:32.718Z,12.57
2023-03-21T03:51:32.707Z,12.60
2023-03-21T03:52:32.691Z,12.50
2023-03-21T03:53:32.782Z,12.55
2023-03-21T03:54:32.679Z,12.58
2023-03-21T03:55:32.657Z,12.60
2023-03-21T03:56:32.669Z,12.45
2023-03-21T03:57:32.669Z,12.46
2023-03-21T03:58:44.455Z,12.42
2023-03-21T03:59:33.603Z,12.40
2023-03-21T04:00:32.677Z,12.40
2023-03-21T04:01:32.685Z,12.54
2023-03-21T04:02:32.639Z,12.54
2023-03-21T04:03:47.621Z,12.49
2023-03-21T04:04:33.634Z,12.58
2023-03-21T04:05:32.573Z,12.54
2023-03-21T04:06:33.576Z,12.60
2023-03-21T04:07:33.346Z,12.55
2023-03-21T04:08:32.550Z,12.67
2023-03-21T04:09:43.745Z,12.58
2023-03-21T04:10:33.479Z,12.61
2023-03-21T04:11:32.503Z,12.62
2023-03-21T04:12:32.531Z,12.64
2023-03-21T04:13:32.516Z,12.60
2023-03-21T04:14:44.037Z,12.72
2023-03-21T04:15:33.513Z,12.72
2023-03-21T04:16:35.526Z,12.76
2023-03-21T04:17:32.415Z,12.72
2023-03-21T04:18:32.412Z,12.68
2023-03-21T04:19:32.430Z,12.60
2023-03-21T04:20:36.890Z,12.58
2023-03-21T04:21:33.375Z,12.61
2023-03-21T04:22:32.447Z,12.72
2023-03-21T04:23:32.361Z,12.67
2023-03-21T04:24:32.402Z,12.62
2023-03-21T04:25:34.130Z,12.60
2023-03-21T04:26:32.325Z,12.64
2023-03-21T04:27:32.362Z,12.55
2023-03-21T04:28:32.330Z,12.61
2023-03-21T04:29:32.279Z,12.54
2023-03-21T04:30:33.307Z,12.60
2023-03-21T04:31:32.293Z,12.64
2023-03-21T04:32:32.304Z,12.60
2023-03-21T04:33:33.311Z,12.68
2023-03-21T04:34:32.254Z,12.62
2023-03-21T04:35:32.294Z,12.64
2023-03-21T04:36:32.237Z,12.60
2023-03-21T04:37:32.190Z,12.73
2023-03-21T04:38:32.205Z,12.75
2023-03-21T04:39:33.191Z,12.67
2023-03-21T04:40:32.185Z,12.72
2023-03-21T04:41:32.170Z,12.70
2023-03-21T04:42:33.186Z,12.70
2023-03-21T04:43:32.198Z,12.65
2023-03-21T04:44:32.164Z,12.72
2023-03-21T04:45:32.128Z,12.72
2023-03-21T04:46:32.081Z,12.62
2023-03-21T04:47:32.147Z,12.72
2023-03-21T04:48:32.113Z,12.75
2023-03-21T04:49:32.062Z,12.68
2023-03-21T04:50:32.052Z,12.70
2023-03-21T04:51:32.071Z,12.70
2023-03-21T04:52:32.040Z,12.65
2023-03-21T04:53:33.051Z,12.72
2023-03-21T04:54:33.034Z,12.73
2023-03-21T04:55:33.871Z,12.79
2023-03-21T04:56:31.982Z,12.73
2023-03-21T04:57:31.998Z,12.79
2023-03-21T04:58:31.974Z,12.76
2023-03-21T04:59:33.026Z,12.70
2023-03-21T05:00:31.974Z,12.68
2023-03-21T05:01:32.060Z,12.79
2023-03-21T05:02:32.926Z,12.76
2023-03-21T05:03:32.324Z,12.75
2023-03-21T05:04:32.933Z,12.75
2023-03-21T05:05:31.919Z,12.64
2023-03-21T05:06:31.903Z,12.79
2023-03-21T05:07:31.880Z,12.70
2023-03-21T05:08:31.911Z,12.60
2023-03-21T05:09:31.868Z,12.60
2023-03-21T05:10:31.835Z,12.67
2023-03-21T05:11:32.851Z,12.62
2023-03-21T05:12:31.821Z,12.65
2023-03-21T05:13:31.824Z,12.60
2023-03-21T05:14:32.840Z,12.61
2023-03-21T05:15:31.756Z,12.58
2023-03-21T05:16:32.803Z,12.70
2023-03-21T05:17:31.752Z,12.61
2023-03-21T05:18:32.752Z,12.61
2023-03-21T05:19:31.777Z,12.57
2023-03-21T05:20:32.746Z,12.61
2023-03-21T05:21:31.700Z,12.73
2023-03-21T05:22:31.692Z,12.73
2023-03-21T05:23:32.755Z,12.73
2023-03-21T05:24:32.678Z,12.75
2023-03-21T05:25:31.733Z,12.85
2023-03-21T05:26:31.672Z,12.82
2023-03-21T05:27:31.672Z,12.80
2023-03-21T05:28:31.658Z,12.83
2023-03-21T05:29:31.629Z,12.78
2023-03-21T05:30:32.617Z,12.80
2023-03-21T05:31:31.592Z,12.75
2023-03-21T05:32:32.620Z,12.72
2023-03-21T05:33:31.626Z,12.72
2023-03-21T05:34:31.573Z,12.75
2023-03-21T05:35:31.579Z,12.70
2023-03-21T05:36:32.550Z,12.67
2023-03-21T05:37:31.529Z,12.64
2023-03-21T05:38:31.561Z,12.65
2023-03-21T05:39:31.524Z,12.85
2023-03-21T05:40:31.555Z,12.86
2023-03-21T05:41:32.475Z,12.86
2023-03-21T05:42:31.518Z,12.83
2023-03-21T05:43:31.518Z,12.85
2023-03-21T05:44:31.448Z,12.82
2023-03-21T05:45:31.446Z,12.83
2023-03-21T05:46:31.571Z,12.91
2023-03-21T05:47:31.473Z,12.90
2023-03-21T05:48:31.474Z,12.83
2023-03-21T05:49:31.405Z,12.83
2023-03-21T05:50:32.404Z,12.87
2023-03-21T05:51:32.395Z,12.91
2023-03-21T05:52:32.499Z,12.85
2023-03-21T05:53:31.356Z,12.86
2023-03-21T05:54:32.318Z,12.79
2023-03-21T05:55:31.374Z,12.97
2023-03-21T05:56:31.376Z,12.95
2023-03-21T05:57:32.271Z,12.95
2023-03-21T05:58:31.329Z,13.00
2023-03-21T05:59:31.284Z,12.97
2023-03-21T06:00:32.271Z,12.93
2023-03-21T06:01:32.271Z,13.00
2023-03-21T06:02:31.303Z,12.95
2023-03-21T06:03:31.297Z,12.95
2023-03-21T06:04:31.233Z,13.08
2023-03-21T06:05:31.204Z,13.01
2023-03-21T06:06:31.233Z,12.95
2023-03-21T06:07:31.232Z,13.11
2023-03-21T06:08:31.191Z,12.98
2023-03-21T06:09:31.198Z,13.08
2023-03-21T06:10:31.152Z,13.03
2023-03-21T06:11:31.176Z,12.97
2023-03-21T06:12:31.145Z,13.03
2023-03-21T06:13:31.243Z,12.98
2023-03-21T06:14:31.115Z,13.15
2023-03-21T06:15:31.125Z,13.16
2023-03-21T06:16:31.111Z,13.03
2023-03-21T06:17:31.115Z,13.04
2023-03-21T06:18:32.137Z,13.09
2023-03-21T06:19:31.099Z,13.18
2023-03-21T06:20:31.072Z,13.11
2023-03-21T06:21:31.034Z,13.23
2023-03-21T06:22:32.064Z,13.33
2023-03-21T06:23:32.023Z,13.35
2023-03-21T06:24:32.020Z,13.35
2023-03-21T06:25:31.990Z,13.35
2023-03-21T06:26:31.011Z,13.30
2023-03-21T06:27:31.007Z,13.37
2023-03-21T06:28:30.954Z,13.39
2023-03-21T06:29:30.974Z,13.35
2023-03-21T06:30:32.004Z,13.42
2023-03-21T06:31:31.008Z,13.42
2023-03-21T06:32:30.935Z,13.46
2023-03-21T06:33:30.945Z,13.38
2023-03-21T06:34:30.901Z,13.31
2023-03-21T06:35:30.978Z,13.30
2023-03-21T06:36:30.883Z,13.33
2023-03-21T06:37:30.898Z,13.31
2023-03-21T06:38:30.876Z,13.35
2023-03-21T06:39:31.923Z,13.04
2023-03-21T06:40:31.869Z,13.16
2023-03-21T06:41:30.822Z,13.23
2023-03-21T06:42:30.823Z,13.33
2023-03-21T06:43:30.821Z,13.33
2023-03-21T06:44:30.798Z,13.28
2023-03-21T06:45:30.831Z,13.23
2023-03-21T06:46:30.835Z,13.28
2023-03-21T06:47:30.744Z,13.28
2023-03-21T06:48:30.771Z,13.25
2023-03-21T06:49:30.748Z,13.25
2023-03-21T06:50:30.712Z,13.35
2023-03-21T06:51:30.745Z,13.41
2023-03-21T06:52:30.741Z,13.42
2023-03-21T06:53:30.701Z,13.44
2023-03-21T06:54:30.669Z,13.42
2023-03-21T06:55:30.720Z,13.41
2023-03-21T06:56:31.641Z,13.52
2023-03-21T06:57:31.662Z,13.60
2023-03-21T06:58:30.638Z,13.60
2023-03-21T06:59:30.713Z,13.62
2023-03-21T07:00:30.664Z,13.60
2023-03-21T07:01:30.634Z,13.71
2023-03-21T07:02:31.633Z,13.72
2023-03-21T07:03:30.569Z,13.75
2023-03-21T07:04:30.566Z,13.67
2023-03-21T07:05:30.547Z,13.59
2023-03-21T07:06:30.552Z,13.70
2023-03-21T07:07:30.563Z,13.74
2023-03-21T07:08:31.546Z,13.71
2023-03-21T07:09:30.499Z,13.74
2023-03-21T07:10:30.548Z,13.81
2023-03-21T07:11:30.516Z,13.85
2023-03-21T07:12:30.469Z,13.86
2023-03-21T07:13:30.516Z,13.85
2023-03-21T07:14:30.452Z,13.92
2023-03-21T07:15:30.440Z,13.96
2023-03-21T07:16:30.501Z,13.81
2023-03-21T07:17:30.454Z,13.96
2023-03-21T07:18:30.448Z,13.92
2023-03-21T07:19:30.417Z,13.92
2023-03-21T07:20:30.419Z,13.90
2023-03-21T07:21:30.452Z,13.86
2023-03-21T07:22:30.384Z,13.86
2023-03-21T07:23:30.364Z,13.90
2023-03-21T07:24:30.364Z,13.92
2023-03-21T07:25:31.354Z,13.86
2023-03-21T07:26:31.351Z,13.90
2023-03-21T07:27:30.316Z,13.90
2023-03-21T07:28:31.303Z,13.86
2023-03-21T07:29:30.309Z,13.89
2023-03-21T07:30:31.343Z,13.87
2023-03-21T07:31:31.335Z,13.86
2023-03-21T07:32:30.260Z,14.03
2023-03-21T07:33:30.256Z,14.03
2023-03-21T07:34:30.225Z,14.08
2023-03-21T07:35:30.228Z,14.17
2023-03-21T07:36:30.245Z,14.26
2023-03-21T07:37:30.202Z,14.36
2023-03-21T07:38:31.184Z,14.44
2023-03-21T07:39:30.278Z,14.47
2023-03-21T07:40:30.231Z,14.47
2023-03-21T07:41:30.157Z,14.48
2023-03-21T07:43:30.144Z,14.48
2023-03-21T07:44:30.134Z,14.45
2023-03-21T07:45:31.161Z,14.59
2023-03-21T07:46:30.166Z,14.60
2023-03-21T07:47:31.149Z,14.60
2023-03-21T07:48:30.062Z,14.65
2023-03-21T07:49:30.064Z,14.73
2023-03-21T07:50:31.093Z,14.72
2023-03-21T07:51:30.065Z,14.68
2023-03-21T07:52:31.044Z,14.69
2023-03-21T07:53:30.030Z,14.68
2023-03-21T07:54:30.194Z,14.72
2023-03-21T07:55:29.994Z,14.68
2023-03-21T07:56:30.043Z,14.73
2023-03-21T07:57:29.987Z,14.69
2023-03-21T07:58:29.969Z,14.73
2023-03-21T07:59:29.978Z,14.72
2023-03-21T08:00:29.948Z,14.69
2023-03-21T08:01:29.923Z,14.77
2023-03-21T08:02:31.063Z,14.69
2023-03-21T08:03:31.004Z,14.77
2023-03-21T08:04:29.950Z,14.82
2023-03-21T08:05:29.909Z,14.92
2023-03-21T08:06:29.870Z,14.97
2023-03-21T08:07:29.882Z,15.00
2023-03-21T08:08:29.894Z,14.96
2023-03-21T08:09:31.121Z,15.09
2023-03-21T08:10:29.886Z,15.24
2023-03-21T08:11:29.832Z,15.18
2023-03-21T08:12:29.829Z,15.11
2023-03-21T08:13:30.845Z,15.19
2023-03-21T08:14:29.788Z,15.21
2023-03-21T08:15:29.769Z,15.14
2023-03-21T08:16:29.853Z,15.17
2023-03-21T08:17:29.769Z,15.15
2023-03-21T08:18:29.802Z,15.15
2023-03-21T08:19:29.752Z,15.14
2023-03-21T08:20:29.745Z,15.11
2023-03-21T08:21:30.727Z,15.21
2023-03-21T08:22:29.774Z,15.25
2023-03-21T08:23:29.743Z,15.31
2023-03-21T08:24:29.662Z,15.39
2023-03-21T08:25:29.770Z,15.35
2023-03-21T08:26:29.642Z,15.36
2023-03-21T08:27:29.652Z,15.44
2023-03-21T08:28:30.640Z,15.46
2023-03-21T08:29:29.699Z,15.37
2023-03-21T08:30:30.757Z,15.40
2023-03-21T08:31:29.665Z,15.39
2023-03-21T08:32:29.593Z,15.43
2023-03-21T08:33:29.591Z,15.39
2023-03-21T08:34:30.737Z,15.42
2023-03-21T08:35:29.638Z,15.49
2023-03-21T08:36:29.622Z,15.47
2023-03-21T08:37:29.558Z,15.47
2023-03-21T08:38:29.561Z,15.51
2023-03-21T08:39:29.560Z,15.37
2023-03-21T08:40:30.497Z,15.33
2023-03-21T08:41:29.606Z,15.36
2023-03-21T08:42:29.508Z,15.49
2023-03-21T08:43:29.460Z,15.46
2023-03-21T08:44:29.518Z,15.51
2023-03-21T08:45:29.463Z,15.57
2023-03-21T08:46:29.494Z,15.61
2023-03-21T08:47:29.446Z,15.51
2023-03-21T08:48:29.439Z,15.55
2023-03-21T08:49:29.440Z,15.59
2023-03-21T08:50:30.174Z,15.65
2023-03-21T08:51:29.448Z,15.62
2023-03-21T08:52:29.424Z,15.61
2023-03-21T08:53:29.345Z,15.73
2023-03-21T08:54:30.351Z,15.70
2023-03-21T08:55:29.400Z,15.68
2023-03-21T08:56:30.317Z,15.57
2023-03-21T08:57:30.382Z,15.64
2023-03-21T08:58:29.344Z,15.61
2023-03-21T08:59:29.315Z,15.59
2023-03-21T09:00:29.280Z,15.70
2023-03-21T09:01:29.287Z,15.64
2023-03-21T09:02:29.309Z,15.80
2023-03-21T09:03:29.291Z,15.77
2023-03-21T09:04:29.328Z,15.80
2023-03-21T09:05:29.223Z,15.90
2023-03-21T09:06:30.232Z,15.94
2023-03-21T09:07:30.224Z,16.01
2023-03-21T09:08:29.230Z,16.00
2023-03-21T09:09:29.254Z,16.09
2023-03-21T09:10:29.188Z,16.04
2023-03-21T09:11:30.252Z,16.13
2023-03-21T09:12:29.133Z,16.12
2023-03-21T09:13:29.153Z,16.21
2023-03-21T09:14:29.436Z,16.12
2023-03-21T09:15:30.122Z,16.15
2023-03-21T09:16:29.308Z,16.17
2023-03-21T09:17:29.108Z,16.12
2023-03-21T09:18:30.081Z,16.20
2023-03-21T09:19:30.136Z,16.12
2023-03-21T09:20:29.104Z,16.24
2023-03-21T09:21:29.076Z,16.26
2023-03-21T09:22:30.031Z,16.21
2023-03-21T09:23:29.093Z,16.23
2023-03-21T09:24:29.052Z,16.17
2023-03-21T09:25:30.034Z,16.28
2023-03-21T09:26:29.981Z,16.32
2023-03-21T09:27:29.015Z,16.38
2023-03-21T09:28:29.069Z,16.38
2023-03-21T09:29:28.947Z,16.36
2023-03-21T09:30:28.962Z,16.46
2023-03-21T09:31:30.005Z,16.43
2023-03-21T09:32:28.938Z,16.46
2023-03-21T09:33:29.085Z,16.60
2023-03-21T09:34:28.984Z,16.58
2023-03-21T09:35:29.902Z,16.64
2023-03-21T09:36:28.907Z,16.65
2023-03-21T09:37:28.881Z,16.68
2023-03-21T09:38:29.916Z,16.75
2023-03-21T09:39:28.913Z,16.71
2023-03-21T09:40:28.878Z,16.75
2023-03-21T09:41:28.863Z,16.72
2023-03-21T09:42:28.822Z,16.60
2023-03-21T09:43:28.863Z,16.69
2023-03-21T09:44:28.868Z,16.66
2023-03-21T09:45:28.844Z,16.72
2023-03-21T09:46:28.827Z,16.87
2023-03-21T09:47:28.754Z,16.84
2023-03-21T09:48:28.755Z,16.94
2023-03-21T09:49:29.728Z,16.89
2023-03-21T09:50:28.721Z,17.04
2023-03-21T09:51:29.753Z,16.91
2023-03-21T09:52:29.699Z,16.93
2023-03-21T09:53:29.701Z,17.01
2023-03-21T09:54:29.729Z,16.97
2023-03-21T09:55:28.699Z,17.02
2023-03-21T09:56:29.658Z,17.01
2023-03-21T09:57:28.717Z,17.14
2023-03-21T09:58:28.658Z,17.23
2023-03-21T09:59:31.216Z,17.38
2023-03-21T10:00:29.837Z,17.46
2023-03-21T10:01:28.668Z,17.52
2023-03-21T10:02:28.583Z,17.36
2023-03-21T10:03:28.577Z,17.42
2023-03-21T10:04:28.831Z,17.38
2023-03-21T10:05:28.619Z,17.26
2023-03-21T10:06:28.674Z,17.26
2023-03-21T10:07:28.564Z,17.36
2023-03-21T10:08:28.593Z,17.39
2023-03-21T10:09:28.555Z,17.52
2023-03-21T10:10:28.489Z,17.54
2023-03-21T10:11:28.522Z,17.57
2023-03-21T10:12:28.500Z,17.68
2023-03-21T10:13:29.704Z,17.74
2023-03-21T10:14:28.454Z,17.80
2023-03-21T10:15:28.554Z,17.82
2023-03-21T10:16:28.565Z,17.82
2023-03-21T10:17:28.456Z,17.78
2023-03-21T10:18:28.438Z,17.78
2023-03-21T10:19:29.621Z,17.79
2023-03-21T10:20:28.455Z,17.90
2023-03-21T10:21:56.903Z,17.80
2023-03-21T10:22:29.447Z,17.82
2023-03-21T10:23:29.378Z,17.82
2023-03-21T10:24:28.394Z,17.82
2023-03-21T10:25:28.335Z,17.87
2023-03-21T10:26:28.392Z,18.00
2023-03-21T10:27:28.340Z,18.01
2023-03-21T10:28:34.407Z,17.95
2023-03-21T10:29:29.341Z,17.87
2023-03-21T10:30:29.289Z,17.87
2023-03-21T10:31:28.366Z,17.95
2023-03-21T10:32:29.378Z,17.89
2023-03-21T10:33:28.242Z,17.90
2023-03-21T10:34:28.268Z,18.00
2023-03-21T10:35:29.278Z,18.05
2023-03-21T10:36:28.268Z,18.31
2023-03-21T10:37:28.243Z,18.31
2023-03-21T10:38:28.275Z,18.52
2023-03-21T10:39:28.189Z,18.50
2023-03-21T10:40:28.174Z,18.41
2023-03-21T10:41:28.194Z,18.34
2023-03-21T10:42:28.185Z,18.35
2023-03-21T10:43:28.184Z,18.50
2023-03-21T10:44:28.162Z,18.55
2023-03-21T10:45:29.216Z,18.63
2023-03-21T10:46:28.322Z,18.66
2023-03-21T10:47:28.344Z,18.75
2023-03-21T10:48:28.181Z,18.78
2023-03-21T10:49:28.121Z,18.86
2023-03-21T10:50:28.197Z,18.98
2023-03-21T10:51:28.067Z,18.88
2023-03-21T10:52:28.046Z,18.84
2023-03-21T10:53:28.039Z,18.80
2023-03-21T10:54:28.051Z,18.77
2023-03-21T10:55:28.009Z,18.75
2023-03-21T10:56:28.061Z,18.74
2023-03-21T10:57:27.990Z,18.65
2023-03-21T10:58:28.970Z,18.59
2023-03-21T10:59:28.983Z,18.49
2023-03-21T11:00:27.992Z,18.49
2023-03-21T11:01:27.985Z,18.31
2023-03-21T11:02:28.051Z,18.29
2023-03-21T11:03:27.916Z,18.35
2023-03-21T11:04:27.919Z,18.43
2023-03-21T11:05:27.932Z,18.53
2023-03-21T11:06:27.921Z,18.63
2023-03-21T11:07:28.884Z,18.75
2023-03-21T11:08:27.878Z,18.81
2023-03-21T11:09:28.890Z,18.96
2023-03-21T11:10:29.315Z,19.07
2023-03-21T11:11:27.902Z,19.09
2023-03-21T11:12:27.820Z,19.15
2023-03-21T11:13:27.818Z,19.21
2023-03-21T11:14:27.828Z,19.14
2023-03-21T11:15:27.873Z,19.09
2023-03-21T11:16:27.879Z,19.02
2023-03-21T11:17:27.863Z,19.00
2023-03-21T11:18:27.757Z,18.88
2023-03-21T11:19:27.777Z,18.75
2023-03-21T11:20:27.736Z,18.74
2023-03-21T11:21:29.736Z,18.70
2023-03-21T11:22:27.745Z,18.68
2023-03-21T11:23:28.716Z,18.77
2023-03-21T11:24:27.698Z,18.70
2023-03-21T11:25:27.674Z,18.81
2023-03-21T11:26:28.681Z,18.93
2023-03-21T11:27:28.694Z,18.96
2023-03-21T11:28:27.678Z,18.98
2023-03-21T11:29:27.642Z,19.12
2023-03-21T11:30:27.735Z,19.00
2023-03-21T11:31:27.646Z,19.11
2023-03-21T11:32:27.596Z,19.11
2023-03-21T11:33:27.624Z,18.80
2023-03-21T11:34:27.577Z,18.63
2023-03-21T11:35:27.568Z,18.70
2023-03-21T11:36:27.564Z,18.65
2023-03-21T11:37:28.670Z,18.80
2023-03-21T11:38:27.540Z,18.77
2023-03-21T11:39:27.567Z,18.83
2023-03-21T11:40:27.509Z,18.84
2023-03-21T11:41:27.495Z,18.96
2023-03-21T11:42:27.500Z,19.08
2023-03-21T11:43:27.517Z,19.16
2023-03-21T11:44:27.522Z,19.09
2023-03-21T11:45:27.495Z,19.31
2023-03-21T11:46:35.239Z,19.54
2023-03-21T11:47:27.426Z,19.39
2023-03-21T11:48:28.463Z,19.45
2023-03-21T11:49:27.420Z,19.36
2023-03-21T11:50:28.462Z,19.44
2023-03-21T11:51:27.423Z,19.41
2023-03-21T11:52:28.376Z,19.56
2023-03-21T11:53:27.392Z,19.51
2023-03-21T11:54:27.363Z,19.59
2023-03-21T11:55:27.404Z,19.51
2023-03-21T11:56:27.360Z,19.48
2023-03-21T11:57:27.322Z,19.55
2023-03-21T11:58:27.366Z,19.49
2023-03-21T11:59:28.340Z,19.21
2023-03-21T12:00:28.296Z,19.19
2023-03-21T12:01:27.278Z,18.98
2023-03-21T12:02:27.394Z,19.07
2023-03-21T12:03:28.864Z,19.09
2023-03-21T12:04:27.432Z,19.26
2023-03-21T12:05:28.241Z,19.15
2023-03-21T12:06:27.227Z,19.19
2023-03-21T12:07:27.216Z,19.34
2023-03-21T12:08:27.241Z,19.51
2023-03-21T12:09:27.211Z,19.49
2023-03-21T12:10:27.206Z,19.45
2023-03-21T12:11:27.194Z,19.56
2023-03-21T12:12:38.315Z,19.45
2023-03-21T12:13:28.155Z,19.59
2023-03-21T12:14:27.154Z,19.59
2023-03-21T12:15:27.160Z,19.73
2023-03-21T12:16:27.185Z,19.77
2023-03-21T12:17:27.135Z,19.58
2023-03-21T12:18:27.098Z,19.58
2023-03-21T12:19:27.119Z,19.37
2023-03-21T12:20:28.083Z,19.44
2023-03-21T12:21:28.062Z,19.55
2023-03-21T12:22:27.054Z,19.74
2023-03-21T12:23:27.109Z,19.77
2023-03-21T12:24:27.053Z,19.81
2023-03-21T12:25:28.059Z,19.64
2023-03-21T12:26:27.005Z,19.86
2023-03-21T12:27:27.985Z,19.81
2023-03-21T12:28:32.910Z,19.99
2023-03-21T12:29:27.989Z,19.96
2023-03-21T12:30:27.999Z,20.00
2023-03-21T12:31:27.033Z,20.02
2023-03-21T12:32:26.938Z,20.00
2023-03-21T12:33:26.928Z,19.95
2023-03-21T12:34:27.949Z,20.06
2023-03-21T12:35:26.895Z,20.04
2023-03-21T12:36:26.926Z,20.06
2023-03-21T12:37:26.931Z,20.18
2023-03-21T12:38:26.859Z,20.16
2023-03-21T12:39:26.839Z,20.13
2023-03-21T12:40:26.868Z,20.28
2023-03-21T12:41:26.824Z,20.32
2023-03-21T12:42:26.844Z,20.34
2023-03-21T12:43:26.815Z,20.31
2023-03-21T12:44:26.813Z,20.21
2023-03-21T12:45:29.476Z,20.37
2023-03-21T12:46:27.898Z,20.31
2023-03-21T12:47:26.869Z,20.09
2023-03-21T12:48:26.825Z,20.18
2023-03-21T12:49:26.768Z,20.25
2023-03-21T12:50:26.831Z,20.19
2023-03-21T12:51:26.722Z,20.19
2023-03-21T12:52:26.728Z,20.28
2023-03-21T12:53:26.707Z,20.25
2023-03-21T12:54:26.716Z,20.32